createdAt,value
2018-07-19T19:54:56.111Z,31.00
2018-07-19T19:57:25.350Z,21.60
2018-07-19T19:59:54.314Z,21.30
2018-07-19T20:02:23.650Z,21.10
2018-07-19T20:04:53.018Z,20.90
2018-07-19T20:07:22.142Z,20.80
2018-07-19T20:09:51.550Z,20.60
2018-07-19T20:12:20.717Z,20.40
2018-07-19T20:14:49.850Z,20.30
2018-07-19T20:17:19.205Z,20.20
2018-07-19T20:19:48.494Z,20.20
2018-07-19T20:22:17.785Z,20.00
2018-07-19T20:24:47.202Z,19.90
2018-07-19T20:27:16.883Z,19.90
2018-07-19T20:29:46.146Z,19.80
2018-07-19T20:32:15.436Z,19.70
2018-07-19T20:34:44.493Z,19.60
2018-07-19T20:37:13.614Z,19.50
2018-07-19T20:39:42.813Z,19.40
2018-07-19T20:42:12.087Z,19.30
2018-07-19T20:44:41.619Z,19.10
2018-07-19T20:47:10.889Z,19.00
2018-07-19T20:49:40.005Z,18.90
2018-07-19T20:52:09.156Z,18.90
2018-07-19T20:54:38.269Z,18.80
2018-07-19T20:57:07.498Z,18.70
2018-07-19T20:59:36.930Z,18.60
2018-07-19T21:02:06.281Z,18.50
2018-07-19T21:04:35.631Z,18.40
2018-07-19T21:07:05.346Z,18.40
2018-07-19T21:09:34.602Z,18.50
2018-07-19T21:12:03.594Z,18.50
2018-07-19T21:14:32.765Z,18.30
2018-07-19T21:17:02.164Z,18.20
2018-07-19T21:21:59.973Z,18.00
2018-07-19T21:24:29.000Z,17.90
2018-07-19T21:26:58.561Z,17.90
2018-07-19T21:29:27.561Z,17.80
2018-07-19T21:31:56.849Z,17.70
2018-07-19T21:36:55.257Z,17.50
2018-07-19T21:39:24.557Z,17.50
2018-07-19T21:41:53.863Z,17.40
2018-07-19T21:44:23.234Z,17.40
2018-07-19T21:46:55.529Z,17.30
2018-07-19T21:49:24.692Z,17.20
2018-07-19T21:51:53.717Z,17.20
2018-07-19T21:54:23.085Z,17.20
2018-07-19T21:56:53.330Z,17.10
2018-07-19T21:59:22.650Z,17.00
2018-07-19T22:01:51.907Z,17.00
2018-07-19T22:04:21.039Z,16.90
2018-07-19T22:06:50.382Z,16.90
2018-07-19T22:09:22.587Z,16.80
2018-07-19T22:11:52.224Z,16.80
2018-07-19T22:14:21.481Z,16.80
2018-07-19T22:16:50.736Z,16.80
2018-07-19T22:19:20.076Z,16.70
2018-07-19T22:21:49.195Z,16.60
2018-07-19T22:24:18.677Z,16.60
2018-07-19T22:26:47.927Z,16.50
2018-07-19T22:29:17.257Z,16.40
2018-07-19T22:31:46.285Z,16.30
2018-07-19T22:34:15.486Z,16.30
2018-07-19T22:36:44.685Z,16.20
2018-07-19T22:39:13.985Z,16.30
2018-07-19T22:41:43.274Z,16.30
2018-07-19T22:44:12.266Z,16.30
2018-07-19T22:46:41.434Z,16.30
2018-07-19T22:49:10.856Z,16.20
2018-07-19T22:51:39.958Z,16.20
2018-07-19T22:54:09.049Z,16.20
2018-07-19T22:56:38.246Z,16.10
2018-07-19T22:59:07.498Z,16.10
2018-07-19T23:01:36.489Z,16.00
2018-07-19T23:04:05.727Z,15.90
2018-07-19T23:06:34.801Z,15.90
2018-07-19T23:09:04.719Z,15.80
2018-07-19T23:11:34.165Z,15.90
2018-07-19T23:14:03.313Z,15.90
2018-07-19T23:16:32.436Z,15.90
2018-07-19T23:19:01.704Z,15.70
2018-07-19T23:21:30.934Z,15.70
2018-07-19T23:24:00.126Z,15.70
2018-07-19T23:26:29.374Z,15.60
2018-07-19T23:28:58.686Z,15.50
2018-07-19T23:31:27.998Z,15.50
2018-07-19T23:33:57.218Z,15.40
2018-07-19T23:36:29.402Z,15.30
2018-07-19T23:39:03.582Z,15.20
2018-07-19T23:41:37.025Z,15.20
2018-07-19T23:44:10.575Z,15.20
2018-07-19T23:46:45.477Z,15.20
2018-07-19T23:49:14.718Z,15.20
2018-07-19T23:51:43.990Z,15.10
2018-07-19T23:54:13.227Z,15.00
2018-07-19T23:56:42.417Z,15.00
2018-07-19T23:59:11.643Z,14.90
